Gordonsville, Virginia
Current Conditions -  °F | °C
As of 1:35 PM on Thursday 30 Oct 2014 (Local Time) from KGVE Reporting Station
Overcast Overcast  
Wind Chill: 55°   Ceiling: 5000
Heat Index: 55°   Visibility: 10mi
Dew Point: 35°   Wind: 6mph
Humidity: 46%   Direction: 330°NNW
Pressure: 30.05"   Gusts: NA
Location:  38.14°N, 78.19°W
Report Text: KGVE 301735Z AUTO 33005KT 10SM OVC050 13/02 A3005 RMK AO1 T01300015
Loading
Personal Weather Stations






























Interactive Weather Map New forecast layout! Learn more

10-Day Weather Forecast

Advertisements
Track Severe Weather on mobile